createdAt,value
2019-05-26T00:00:52.562Z,0.00
2019-05-26T00:01:52.542Z,0.00
2019-05-26T00:02:52.523Z,0.00
2019-05-26T00:03:52.507Z,0.00
2019-05-26T00:04:52.485Z,0.00
2019-05-26T00:05:52.469Z,0.00
2019-05-26T00:06:52.449Z,0.00
2019-05-26T00:07:52.429Z,0.00
2019-05-26T00:08:52.409Z,0.00
2019-05-26T00:09:52.389Z,0.00
2019-05-26T00:10:52.371Z,0.00
2019-05-26T00:11:52.357Z,0.00
2019-05-26T00:12:52.338Z,0.00
2019-05-26T00:13:52.317Z,0.00
2019-05-26T00:14:52.295Z,0.00
2019-05-26T00:15:52.285Z,0.00
2019-05-26T00:16:52.259Z,0.00
2019-05-26T00:17:52.244Z,0.00
2019-05-26T00:18:52.238Z,0.00
2019-05-26T00:19:52.199Z,0.00
2019-05-26T00:20:52.181Z,0.00
2019-05-26T00:22:42.323Z,0.00
2019-05-26T00:23:39.675Z,0.00
2019-05-26T00:24:39.658Z,0.00
2019-05-26T00:25:39.641Z,0.00
2019-05-26T00:26:39.629Z,0.00
2019-05-26T00:27:39.602Z,0.00
2019-05-26T00:28:39.577Z,0.00
2019-05-26T00:29:40.977Z,0.00
2019-05-26T02:02:52.122Z,0.00
2019-05-26T02:03:52.107Z,0.00
2019-05-26T02:04:52.092Z,0.00
2019-05-26T02:05:52.065Z,0.00
2019-05-26T02:06:52.046Z,0.00
2019-05-26T02:07:52.028Z,0.00
2019-05-26T02:08:52.003Z,0.00
2019-05-26T02:09:52.061Z,0.00
2019-05-26T02:10:51.966Z,0.00
2019-05-26T02:11:51.946Z,0.00
2019-05-26T02:12:51.921Z,0.00
2019-05-26T02:13:51.904Z,0.00
2019-05-26T02:14:51.885Z,0.00
2019-05-26T02:15:52.174Z,0.00
2019-05-26T02:16:52.175Z,4.00
2019-05-26T02:17:51.830Z,4.00
2019-05-26T02:18:52.409Z,4.00
2019-05-26T02:19:51.782Z,0.00
2019-05-26T02:20:51.761Z,0.00
2019-05-26T02:21:51.743Z,4.00
2019-05-26T02:22:51.723Z,4.00
2019-05-26T02:23:51.701Z,4.00
2019-05-26T02:24:51.682Z,0.00
2019-05-26T02:25:51.665Z,4.00
2019-05-26T02:26:51.639Z,4.00
2019-05-26T02:27:51.625Z,4.00
2019-05-26T02:28:51.605Z,4.00
2019-05-26T02:29:51.580Z,8.00
2019-05-26T02:30:51.567Z,8.00
2019-05-26T02:31:51.542Z,8.00
2019-05-26T02:32:51.523Z,12.00
2019-05-26T02:33:51.509Z,12.00
2019-05-26T02:34:51.480Z,16.00
2019-05-26T02:35:51.462Z,16.00
2019-05-26T02:36:51.444Z,16.00
2019-05-26T02:37:51.423Z,20.00
2019-05-26T02:39:02.093Z,20.00
2019-05-26T02:39:51.379Z,24.00
2019-05-26T02:40:51.358Z,24.00
2019-05-26T02:41:51.344Z,32.00
2019-05-26T02:42:51.324Z,36.00
2019-05-26T02:43:51.300Z,36.00
2019-05-26T02:44:51.283Z,44.00
2019-05-26T02:45:51.260Z,44.00
2019-05-26T02:46:51.240Z,52.00
2019-05-26T02:47:51.220Z,56.00
2019-05-26T02:52:44.575Z,76.00
2019-05-26T02:53:44.551Z,80.00
2019-05-26T02:54:44.532Z,84.00
2019-05-26T02:55:44.513Z,88.00
2019-05-26T03:01:10.982Z,120.00
2019-05-26T03:02:10.964Z,132.00
2019-05-26T03:03:10.943Z,136.00
2019-05-26T03:06:51.723Z,168.00
2019-05-26T03:07:51.705Z,180.00
2019-05-26T03:08:51.684Z,192.00
2019-05-26T03:09:51.663Z,204.00
2019-05-26T03:10:51.654Z,212.00
2019-05-26T03:11:51.626Z,220.00
2019-05-26T03:12:51.608Z,236.00
2019-05-26T03:13:51.597Z,244.00
2019-05-26T03:14:51.564Z,260.00
2019-05-26T03:15:51.549Z,272.00
2019-05-26T03:16:51.643Z,284.00
2019-05-26T03:17:51.505Z,296.00
2019-05-26T03:18:51.495Z,312.00
2019-05-26T03:19:51.558Z,324.00
2019-05-26T03:20:51.438Z,336.00
2019-05-26T03:21:51.422Z,356.00
2019-05-26T03:22:51.401Z,372.00
2019-05-26T03:23:51.383Z,384.00
2019-05-26T03:24:51.356Z,400.00
2019-05-26T03:25:51.344Z,416.00
2019-05-26T03:26:51.319Z,432.00
2019-05-26T03:27:51.361Z,448.00
2019-05-26T03:28:51.278Z,464.00
2019-05-26T03:29:51.255Z,484.00
2019-05-26T03:30:51.236Z,500.00
2019-05-26T03:31:51.230Z,520.00
2019-05-26T03:32:51.204Z,544.00
2019-05-26T03:33:51.180Z,560.00
2019-05-26T03:34:51.153Z,580.00
2019-05-26T03:35:51.157Z,604.00
2019-05-26T03:36:51.117Z,624.00
2019-05-26T03:37:51.099Z,652.00
2019-05-26T03:38:51.078Z,680.00
2019-05-26T03:39:51.063Z,712.00
2019-05-26T03:40:51.035Z,752.00
2019-05-26T03:41:51.019Z,792.00
2019-05-26T03:42:50.995Z,828.00
2019-05-26T03:43:50.975Z,868.00
2019-05-26T03:44:50.984Z,900.00
2019-05-26T03:45:50.942Z,932.00
2019-05-26T03:46:50.917Z,960.00
2019-05-26T03:47:50.898Z,996.00
2019-05-26T03:48:50.922Z,1032.00
2019-05-26T03:49:50.854Z,1072.00
2019-05-26T03:50:50.835Z,1108.00
2019-05-26T03:51:50.822Z,1136.00
2019-05-26T03:52:50.796Z,1160.00
2019-05-26T03:53:50.774Z,1184.00
2019-05-26T03:54:50.762Z,1212.00
2019-05-26T03:55:50.736Z,1244.00
2019-05-26T03:56:50.710Z,1284.00
2019-05-26T03:57:50.692Z,1320.00
2019-05-26T03:58:50.670Z,1360.00
2019-05-26T03:59:50.657Z,1400.00
2019-05-26T04:00:50.634Z,1436.00
2019-05-26T04:01:50.612Z,1472.00
2019-05-26T04:02:50.593Z,1504.00
2019-05-26T04:03:50.582Z,1536.00
2019-05-26T04:04:50.557Z,1572.00
2019-05-26T04:05:50.537Z,1592.00
2019-05-26T04:06:50.514Z,1604.00
2019-05-26T04:07:50.493Z,1604.00
2019-05-26T04:08:50.471Z,1604.00
2019-05-26T04:10:04.040Z,1608.00
2019-05-26T04:10:50.443Z,1624.00
2019-05-26T04:11:50.417Z,1644.00
2019-05-26T04:12:50.396Z,1676.00
2019-05-26T04:13:50.377Z,1708.00
2019-05-26T04:14:50.358Z,1728.00
2019-05-26T04:15:50.335Z,1740.00
2019-05-26T04:16:50.314Z,1756.00
2019-05-26T04:17:50.314Z,1776.00
2019-05-26T04:18:50.284Z,1808.00
2019-05-26T04:19:50.258Z,1840.00
2019-05-26T04:20:50.231Z,1868.00
2019-05-26T04:21:50.217Z,1884.00
2019-05-26T04:22:50.206Z,1904.00
2019-05-26T04:23:50.186Z,1916.00
2019-05-26T04:24:50.155Z,1932.00
2019-05-26T04:25:50.143Z,1956.00
2019-05-26T04:26:50.118Z,1988.00
2019-05-26T04:27:50.105Z,2028.00
2019-05-26T04:28:50.083Z,2064.00
2019-05-26T04:29:50.068Z,2104.00
2019-05-26T04:30:50.042Z,2128.00
2019-05-26T04:31:50.021Z,2156.00
2019-05-26T04:32:50.000Z,2180.00
2019-05-26T04:33:49.984Z,2204.00
2019-05-26T04:34:49.963Z,2232.00
2019-05-26T04:35:49.952Z,2248.00
2019-05-26T04:36:49.922Z,2292.00
2019-05-26T04:37:49.907Z,2328.00
2019-05-26T04:38:49.886Z,2360.00
2019-05-26T04:39:49.868Z,2400.00
2019-05-26T04:40:49.851Z,2444.00
2019-05-26T04:41:49.831Z,2476.00
2019-05-26T04:42:49.811Z,2500.00
2019-05-26T04:43:49.786Z,2504.00
2019-05-26T04:44:49.768Z,2512.00
2019-05-26T04:45:49.749Z,2516.00
2019-05-26T04:46:49.728Z,2540.00
2019-05-26T04:47:49.717Z,2548.00
2019-05-26T04:48:49.691Z,2552.00
2019-05-26T04:49:49.672Z,2544.00
2019-05-26T04:50:49.656Z,2532.00
2019-05-26T04:51:49.636Z,2520.00
2019-05-26T04:53:05.241Z,2500.00
2019-05-26T04:53:49.598Z,2492.00
2019-05-26T04:54:49.583Z,2484.00
2019-05-26T04:55:49.558Z,2468.00
2019-05-26T04:56:49.540Z,2452.00
2019-05-26T04:57:49.523Z,2444.00
2019-05-26T04:58:49.503Z,2440.00
2019-05-26T04:59:49.479Z,2444.00
2019-05-26T05:00:49.464Z,2448.00
2019-05-26T05:01:49.450Z,2456.00
2019-05-26T05:02:49.429Z,2484.00
2019-05-26T05:03:49.407Z,2508.00
2019-05-26T05:04:49.383Z,2536.00
2019-05-26T05:05:49.367Z,2588.00
2019-05-26T05:06:49.350Z,2640.00
2019-05-26T05:07:49.345Z,2688.00
2019-05-26T05:08:49.311Z,2764.00
2019-05-26T05:09:49.292Z,2840.00
2019-05-26T05:10:49.272Z,2912.00
2019-05-26T05:11:49.255Z,2984.00
2019-05-26T05:12:49.233Z,3012.00
2019-05-26T05:13:49.215Z,3032.00
2019-05-26T05:14:49.201Z,3036.00
2019-05-26T05:15:49.183Z,3016.00
2019-05-26T05:16:49.162Z,3000.00
2019-05-26T05:17:49.138Z,2960.00
2019-05-26T05:18:49.120Z,2896.00
2019-05-26T05:19:49.105Z,2828.00
2019-05-26T05:20:49.089Z,2832.00
2019-05-26T05:21:49.070Z,2828.00
2019-05-26T05:22:49.055Z,2816.00
2019-05-26T05:23:49.042Z,2816.00
2019-05-26T05:24:49.011Z,2776.00
2019-05-26T05:25:48.992Z,2764.00
2019-05-26T05:26:48.974Z,2780.00
2019-05-26T05:27:48.956Z,2796.00
2019-05-26T05:28:48.936Z,2912.00
2019-05-26T05:29:48.920Z,2980.00
2019-05-26T05:30:48.903Z,2996.00
2019-05-26T05:31:48.886Z,3076.00
2019-05-26T05:32:48.869Z,3144.00
2019-05-26T05:33:48.849Z,3220.00
2019-05-26T05:34:48.830Z,3308.00
2019-05-26T05:35:48.807Z,3400.00
2019-05-26T05:36:48.792Z,3496.00
2019-05-26T05:37:48.772Z,3624.00
2019-05-26T05:38:48.758Z,3732.00
2019-05-26T05:39:48.774Z,3824.00
2019-05-26T05:40:59.155Z,3944.00
2019-05-26T05:41:48.698Z,3984.00
2019-05-26T05:42:48.681Z,3948.00
2019-05-26T05:43:48.872Z,3988.00
2019-05-26T05:44:48.651Z,4144.00
2019-05-26T05:45:48.624Z,4312.00
2019-05-26T05:46:48.607Z,4396.00
2019-05-26T05:47:48.590Z,4544.00
2019-05-26T05:48:48.569Z,4696.00
2019-05-26T05:49:48.556Z,4800.00
2019-05-26T05:50:48.547Z,4896.00
2019-05-26T05:51:48.518Z,4976.00
2019-05-26T05:52:48.499Z,4996.00
2019-05-26T05:53:48.481Z,5036.00
2019-05-26T05:54:48.462Z,5028.00
2019-05-26T05:55:48.447Z,5064.00
2019-05-26T05:56:48.431Z,5076.00
2019-05-26T05:57:48.407Z,5092.00
2019-05-26T05:58:48.391Z,5100.00
2019-05-26T05:59:48.371Z,5052.00
2019-05-26T06:00:48.363Z,5048.00
2019-05-26T06:01:48.334Z,5048.00
2019-05-26T06:02:48.319Z,5048.00
2019-05-26T06:03:48.300Z,5080.00
2019-05-26T06:04:48.287Z,5144.00
2019-05-26T06:05:48.262Z,5216.00
2019-05-26T06:06:48.248Z,5344.00
2019-05-26T06:07:48.231Z,5464.00
2019-05-26T06:08:48.215Z,5556.00
2019-05-26T06:09:48.192Z,5604.00
2019-05-26T06:10:48.177Z,5492.00
2019-05-26T06:11:48.163Z,5564.00
2019-05-26T06:12:48.146Z,5584.00
2019-05-26T06:13:48.126Z,5608.00
2019-05-26T06:14:48.109Z,5600.00
2019-05-26T06:15:48.089Z,5628.00
2019-05-26T06:16:48.078Z,5736.00
2019-05-26T06:17:48.064Z,5740.00
2019-05-26T06:18:48.039Z,5804.00
2019-05-26T06:19:48.037Z,5848.00
2019-05-26T06:20:48.003Z,5904.00
2019-05-26T06:21:47.989Z,5968.00
2019-05-26T06:22:47.975Z,6024.00
2019-05-26T06:23:47.955Z,5988.00
2019-05-26T06:24:47.936Z,5932.00
2019-05-26T06:25:47.918Z,5940.00
2019-05-26T06:26:47.900Z,5932.00
2019-05-26T06:27:47.887Z,5920.00
2019-05-26T06:28:47.874Z,5964.00
2019-05-26T06:29:58.549Z,5992.00
2019-05-26T06:30:47.838Z,5976.00
2019-05-26T06:31:48.020Z,5988.00
2019-05-26T06:32:47.801Z,6020.00
2019-05-26T06:33:47.787Z,6012.00
2019-05-26T06:34:47.765Z,6008.00
2019-05-26T06:35:47.747Z,6024.00
2019-05-26T06:36:47.746Z,6036.00
2019-05-26T06:37:47.728Z,5996.00
2019-05-26T06:38:47.755Z,5944.00
2019-05-26T06:39:47.683Z,5908.00
2019-05-26T06:40:47.667Z,5908.00
2019-05-26T06:41:47.653Z,5812.00
2019-05-26T06:42:47.638Z,5592.00
2019-05-26T06:43:47.621Z,5456.00
2019-05-26T06:44:53.726Z,5556.00
2019-05-26T06:45:47.593Z,5916.00
2019-05-26T06:46:47.575Z,5948.00
2019-05-26T06:47:47.556Z,5940.00
2019-05-26T06:48:47.541Z,5948.00
2019-05-26T06:49:47.524Z,5356.00
2019-05-26T06:50:47.507Z,5876.00
2019-05-26T06:51:47.495Z,6076.00
2019-05-26T06:52:47.475Z,5980.00
2019-05-26T06:53:47.465Z,5888.00
2019-05-26T06:54:47.441Z,5832.00
2019-05-26T06:55:47.425Z,5820.00
2019-05-26T06:56:47.408Z,5936.00
2019-05-26T06:57:47.401Z,6020.00
2019-05-26T06:58:47.378Z,6140.00
2019-05-26T06:59:47.359Z,6340.00
2019-05-26T07:00:47.381Z,6644.00
2019-05-26T07:01:47.325Z,6856.00
2019-05-26T07:02:47.314Z,7104.00
2019-05-26T07:03:47.297Z,7208.00
2019-05-26T07:04:47.281Z,6984.00
2019-05-26T07:05:47.266Z,7240.00
2019-05-26T07:06:47.251Z,7380.00
2019-05-26T07:07:47.237Z,7328.00
2019-05-26T07:08:47.218Z,7332.00
2019-05-26T07:09:47.203Z,7392.00
2019-05-26T07:10:47.186Z,7576.00
2019-05-26T07:11:55.896Z,7716.00
2019-05-26T07:12:47.155Z,8100.00
2019-05-26T07:13:47.143Z,8492.00
2019-05-26T07:14:47.126Z,7948.00
2019-05-26T07:15:47.114Z,9372.00
2019-05-26T07:16:47.095Z,9712.00
2019-05-26T07:17:47.087Z,8456.00
2019-05-26T07:18:47.068Z,8952.00
2019-05-26T07:19:47.061Z,9160.00
2019-05-26T07:20:47.044Z,9196.00
2019-05-26T07:21:47.024Z,9544.00
2019-05-26T07:22:47.006Z,9064.00
2019-05-26T07:23:46.989Z,8688.00
2019-05-26T07:24:46.988Z,8524.00
2019-05-26T07:25:46.959Z,8868.00
2019-05-26T07:26:46.948Z,8944.00
2019-05-26T07:27:46.930Z,9028.00
2019-05-26T07:28:46.922Z,9144.00
2019-05-26T07:29:46.910Z,9096.00
2019-05-26T07:30:46.888Z,9320.00
2019-05-26T07:31:46.874Z,9524.00
2019-05-26T07:32:46.856Z,9604.00
2019-05-26T07:33:46.847Z,10040.00
2019-05-26T07:34:46.849Z,10380.00
2019-05-26T07:35:49.773Z,10516.00
2019-05-26T07:36:46.799Z,10312.00
2019-05-26T07:37:46.784Z,11044.00
2019-05-26T07:38:46.842Z,11404.00
2019-05-26T07:39:46.758Z,11656.00
2019-05-26T07:40:46.741Z,11772.00
2019-05-26T07:41:46.732Z,11980.00
2019-05-26T07:42:46.714Z,12332.00
2019-05-26T07:43:46.704Z,12664.00
2019-05-26T07:44:46.693Z,12924.00
2019-05-26T07:45:46.670Z,13208.00
2019-05-26T07:47:46.645Z,13868.00
2019-05-26T07:48:46.957Z,14360.00
2019-05-26T07:49:46.616Z,14996.00
2019-05-26T07:50:46.939Z,17152.00
2019-05-26T07:51:46.590Z,20128.00
2019-05-26T07:52:46.581Z,20384.00
2019-05-26T07:53:47.194Z,20448.00
2019-05-26T07:54:46.878Z,23072.00
2019-05-26T07:55:46.543Z,21600.00
2019-05-26T07:56:46.532Z,21440.00
2019-05-26T07:57:46.522Z,23936.00
2019-05-26T07:58:46.705Z,24704.00
2019-05-26T07:59:46.490Z,26112.00
2019-05-26T08:00:46.477Z,29152.00
2019-05-26T08:01:46.462Z,30848.00
2019-05-26T08:02:46.450Z,31456.00
2019-05-26T08:03:46.439Z,33376.00
2019-05-26T08:04:46.425Z,30560.00
2019-05-26T08:05:46.420Z,29120.00
2019-05-26T08:06:46.404Z,29792.00
2019-05-26T08:07:46.408Z,32192.00
2019-05-26T08:08:46.705Z,33376.00
2019-05-26T08:09:46.372Z,32800.00
2019-05-26T08:10:46.362Z,32704.00
2019-05-26T08:11:46.352Z,30304.00
2019-05-26T08:12:46.340Z,30016.00
2019-05-26T08:13:46.332Z,31520.00
2019-05-26T08:14:46.317Z,33920.00
2019-05-26T08:15:46.311Z,36256.00
2019-05-26T08:16:46.297Z,37184.00
2019-05-26T08:17:46.287Z,31936.00
2019-05-26T08:18:46.276Z,31520.00
2019-05-26T08:19:46.267Z,29216.00
2019-05-26T08:20:46.266Z,29888.00
2019-05-26T08:21:46.249Z,30144.00
2019-05-26T08:22:46.241Z,29120.00
2019-05-26T08:23:46.230Z,29088.00
2019-05-26T08:24:46.227Z,29152.00
2019-05-26T08:25:46.211Z,26848.00
2019-05-26T08:26:46.201Z,21760.00
2019-05-26T08:27:46.199Z,19616.00
2019-05-26T08:28:46.184Z,22752.00
2019-05-26T08:29:46.172Z,13268.00
2019-05-26T08:30:46.166Z,13504.00
2019-05-26T08:31:46.154Z,13704.00
2019-05-26T08:32:46.144Z,13228.00
2019-05-26T08:33:46.142Z,12916.00
2019-05-26T08:34:46.125Z,14464.00
2019-05-26T08:35:46.123Z,27424.00
2019-05-26T08:36:46.109Z,30144.00
2019-05-26T08:37:46.101Z,31392.00
2019-05-26T08:38:46.093Z,30112.00
2019-05-26T08:39:48.592Z,19360.00
2019-05-26T08:40:46.080Z,25152.00
2019-05-26T08:41:46.059Z,28224.00
2019-05-26T08:42:46.055Z,31424.00
2019-05-26T08:43:46.045Z,32096.00
2019-05-26T08:44:46.037Z,31424.00
2019-05-26T08:45:46.024Z,33696.00
2019-05-26T08:46:46.026Z,35520.00
2019-05-26T08:47:46.012Z,37920.00
2019-05-26T08:48:46.001Z,35200.00
2019-05-26T08:49:45.994Z,23712.00
2019-05-26T08:50:45.987Z,25376.00
2019-05-26T08:51:45.977Z,31392.00
2019-05-26T08:52:45.970Z,35424.00
2019-05-26T08:53:45.956Z,35456.00
2019-05-26T08:54:45.952Z,35296.00
2019-05-26T08:55:45.949Z,35264.00
2019-05-26T08:56:45.933Z,37856.00
2019-05-26T08:57:45.947Z,42112.00
2019-05-26T08:58:45.918Z,41792.00
2019-05-26T08:59:45.911Z,41696.00
2019-05-26T09:00:45.903Z,38336.00
2019-05-26T09:01:45.893Z,41600.00
2019-05-26T09:02:45.885Z,43392.00
2019-05-26T09:03:45.881Z,42272.00
2019-05-26T09:04:45.880Z,40800.00
2019-05-26T09:05:45.869Z,42368.00
2019-05-26T09:06:45.860Z,43904.00
2019-05-26T09:07:45.860Z,45920.00
2019-05-26T09:08:45.848Z,47232.00
2019-05-26T09:09:45.843Z,47168.00
2019-05-26T09:10:45.837Z,46400.00
2019-05-26T09:11:45.829Z,47968.00
2019-05-26T09:12:59.727Z,48256.00
2019-05-26T09:13:45.813Z,50368.00
2019-05-26T09:14:45.808Z,50176.00
2019-05-26T09:15:46.021Z,48512.00
2019-05-26T09:16:46.047Z,50336.00
2019-05-26T09:17:45.789Z,51104.00
2019-05-26T09:18:45.781Z,52064.00
2019-05-26T09:19:45.842Z,54080.00
2019-05-26T09:20:45.774Z,54368.00
2019-05-26T09:21:48.389Z,54208.00
2019-05-26T09:22:45.761Z,56256.00
2019-05-26T09:23:45.755Z,56672.00
2019-05-26T09:24:45.770Z,57184.00
2019-05-26T09:25:46.801Z,59232.00
2019-05-26T09:26:45.746Z,60544.00
2019-05-26T09:27:45.938Z,61088.00
2019-05-26T09:28:45.731Z,53184.00
2019-05-26T09:29:45.729Z,43744.00
2019-05-26T09:30:45.725Z,48224.00
2019-05-26T09:31:45.717Z,16704.00
2019-05-26T09:32:45.710Z,9528.00
2019-05-26T09:33:45.712Z,14084.00
2019-05-26T09:34:45.707Z,51008.00
2019-05-26T09:35:45.700Z,47936.00
2019-05-26T09:36:45.702Z,45888.00
2019-05-26T09:37:45.694Z,80128.00
2019-05-26T09:38:45.701Z,75968.00
2019-05-26T09:39:45.683Z,60864.00
2019-05-26T09:40:45.685Z,33600.00
2019-05-26T09:41:45.677Z,62720.00
2019-05-26T09:42:45.671Z,25728.00
2019-05-26T09:43:45.665Z,13500.00
2019-05-26T09:44:45.662Z,10528.00
2019-05-26T09:45:45.655Z,12576.00
2019-05-26T09:46:45.663Z,16660.00
2019-05-26T09:47:45.651Z,15552.00
2019-05-26T09:48:45.652Z,15192.00
2019-05-26T09:49:45.638Z,19328.00
2019-05-26T09:50:45.632Z,17408.00
2019-05-26T09:51:45.630Z,25312.00
2019-05-26T09:52:45.620Z,26336.00
2019-05-26T09:54:00.562Z,29152.00
2019-05-26T09:54:45.622Z,41504.00
2019-05-26T09:55:45.614Z,58912.00
2019-05-26T09:56:45.603Z,19104.00
2019-05-26T09:57:45.596Z,18688.00
2019-05-26T09:58:45.593Z,20288.00
2019-05-26T09:59:45.589Z,37984.00
2019-05-26T10:00:45.582Z,79008.00
2019-05-26T10:01:45.578Z,64288.00
2019-05-26T10:02:45.575Z,22432.00
2019-05-26T10:03:45.651Z,15028.00
2019-05-26T10:04:45.562Z,19840.00
2019-05-26T10:05:45.566Z,74368.00
2019-05-26T10:06:45.556Z,79200.00
2019-05-26T10:07:45.549Z,78720.00
2019-05-26T10:08:45.543Z,20704.00
2019-05-26T10:09:45.540Z,31968.00
2019-05-26T10:10:45.537Z,57120.00
2019-05-26T10:11:45.536Z,36800.00
2019-05-26T10:12:45.529Z,61184.00
2019-05-26T10:13:45.524Z,58176.00
2019-05-26T10:14:47.747Z,13564.00
2019-05-26T10:15:45.523Z,15528.00
2019-05-26T10:16:45.506Z,71488.00
2019-05-26T10:17:45.504Z,76256.00
2019-05-26T10:18:45.504Z,16992.00
2019-05-26T10:19:45.511Z,68800.00
2019-05-26T10:20:45.498Z,70496.00
2019-05-26T10:21:45.488Z,71424.00
2019-05-26T10:22:45.482Z,75520.00
2019-05-26T10:23:45.477Z,70528.00
2019-05-26T10:24:45.474Z,69056.00
2019-05-26T10:25:45.471Z,67168.00
2019-05-26T10:26:45.470Z,57312.00
2019-05-26T10:27:45.467Z,56480.00
2019-05-26T10:28:45.462Z,52576.00
2019-05-26T10:29:45.463Z,48768.00
2019-05-26T10:30:45.458Z,19392.00
2019-05-26T10:31:45.452Z,15084.00
2019-05-26T10:32:45.454Z,16112.00
2019-05-26T10:33:45.444Z,21248.00
2019-05-26T10:34:45.443Z,18784.00
2019-05-26T10:35:45.436Z,57600.00
2019-05-26T10:36:45.434Z,43104.00
2019-05-26T10:37:45.434Z,51936.00
2019-05-26T10:38:45.426Z,52768.00
2019-05-26T10:39:45.435Z,55936.00
2019-05-26T10:40:45.418Z,48416.00
2019-05-26T10:41:45.412Z,38400.00
2019-05-26T10:42:45.417Z,17216.00
2019-05-26T10:43:47.665Z,9728.00
2019-05-26T10:44:45.407Z,13076.00
2019-05-26T10:45:45.426Z,16088.00
2019-05-26T10:46:45.394Z,16344.00
2019-05-26T10:47:45.387Z,17376.00
2019-05-26T10:48:45.391Z,44576.00
2019-05-26T10:49:45.384Z,21120.00
2019-05-26T10:50:45.376Z,21344.00
2019-05-26T10:51:45.375Z,20448.00
2019-05-26T10:52:45.376Z,19872.00
2019-05-26T10:53:45.365Z,57504.00
2019-05-26T10:54:45.392Z,42432.00
2019-05-26T10:55:45.369Z,35584.00
2019-05-26T10:56:45.355Z,45696.00
2019-05-26T10:57:45.357Z,27360.00
2019-05-26T10:58:45.344Z,20992.00
2019-05-26T10:59:45.344Z,21856.00
2019-05-26T11:00:45.333Z,38880.00
2019-05-26T11:01:45.331Z,86208.00
2019-05-26T11:02:45.323Z,84832.00
2019-05-26T11:03:45.320Z,26400.00
2019-05-26T11:04:45.313Z,35584.00
2019-05-26T11:05:45.309Z,37632.00
2019-05-26T11:06:45.315Z,61344.00
2019-05-26T11:07:45.306Z,52448.00
2019-05-26T11:08:45.299Z,19424.00
2019-05-26T11:09:45.294Z,29408.00
2019-05-26T11:10:45.293Z,34080.00
2019-05-26T11:11:45.288Z,17888.00
2019-05-26T11:12:45.281Z,18752.00
2019-05-26T11:13:45.280Z,21664.00
2019-05-26T11:14:45.276Z,15264.00
2019-05-26T11:15:45.274Z,16960.00
2019-05-26T11:16:45.265Z,37376.00
2019-05-26T11:17:45.261Z,30208.00
2019-05-26T11:18:45.257Z,45792.00
2019-05-26T11:19:45.251Z,28064.00
2019-05-26T11:20:45.246Z,15488.00
2019-05-26T11:21:45.241Z,24640.00
2019-05-26T11:22:45.243Z,18112.00
2019-05-26T11:23:45.237Z,16136.00
2019-05-26T11:24:45.232Z,27040.00
2019-05-26T11:25:45.220Z,36768.00
2019-05-26T11:26:45.222Z,55968.00
2019-05-26T11:27:45.215Z,37664.00
2019-05-26T11:28:45.213Z,64480.00
2019-05-26T11:29:45.211Z,64576.00
2019-05-26T11:30:45.198Z,79264.00
2019-05-26T11:31:45.201Z,40800.00
2019-05-26T11:32:45.195Z,71360.00
2019-05-26T11:33:45.194Z,51520.00
2019-05-26T11:34:58.914Z,29472.00
2019-05-26T11:35:45.183Z,25216.00
2019-05-26T11:36:45.176Z,36160.00
2019-05-26T11:37:45.173Z,28576.00
2019-05-26T11:38:45.171Z,47168.00
2019-05-26T11:39:45.165Z,61632.00
2019-05-26T11:40:45.190Z,49216.00
2019-05-26T11:41:54.377Z,23104.00
2019-05-26T11:42:45.401Z,17952.00
2019-05-26T11:43:45.155Z,16640.00
2019-05-26T11:44:45.152Z,16052.00
2019-05-26T11:45:45.147Z,15688.00
2019-05-26T11:46:45.140Z,16768.00
2019-05-26T11:47:45.138Z,25632.00
2019-05-26T11:48:45.138Z,28832.00
2019-05-26T11:49:45.131Z,40032.00
2019-05-26T11:50:45.128Z,34304.00
2019-05-26T11:51:45.126Z,26496.00
2019-05-26T11:52:45.118Z,94976.00
2019-05-26T11:53:45.117Z,120576.00
2019-05-26T11:54:45.116Z,93248.00
2019-05-26T11:55:45.107Z,37760.00
2019-05-26T11:56:45.115Z,25248.00
2019-05-26T11:57:45.111Z,25632.00
2019-05-26T11:58:45.107Z,30496.00
2019-05-26T11:59:47.364Z,35296.00
2019-05-26T12:00:45.090Z,38368.00
2019-05-26T12:01:45.089Z,50720.00
2019-05-26T12:02:45.087Z,48576.00
2019-05-26T12:03:45.092Z,63648.00
2019-05-26T12:04:45.078Z,58304.00
2019-05-26T12:05:45.085Z,55008.00
2019-05-26T12:06:45.078Z,45216.00
2019-05-26T12:07:45.069Z,43008.00
2019-05-26T12:08:45.076Z,40864.00
2019-05-26T12:09:45.068Z,45152.00
2019-05-26T12:10:45.066Z,50816.00
2019-05-26T12:11:45.058Z,58624.00
2019-05-26T12:12:45.059Z,49760.00
2019-05-26T12:13:45.057Z,43008.00
2019-05-26T12:14:45.050Z,31040.00
2019-05-26T12:15:45.050Z,45856.00
2019-05-26T12:16:45.048Z,21408.00
2019-05-26T12:17:45.052Z,18048.00
2019-05-26T12:18:45.040Z,19776.00
2019-05-26T12:19:45.046Z,19008.00
2019-05-26T12:20:45.038Z,19904.00
2019-05-26T12:21:45.035Z,20448.00
2019-05-26T12:22:45.030Z,21728.00
2019-05-26T12:23:45.031Z,92064.00
2019-05-26T12:24:45.027Z,79552.00
2019-05-26T12:25:45.036Z,76128.00
2019-05-26T12:26:45.016Z,55456.00
2019-05-26T12:27:45.022Z,33568.00
2019-05-26T12:28:45.012Z,31936.00
2019-05-26T12:29:45.009Z,36224.00
2019-05-26T12:30:45.013Z,25888.00
2019-05-26T12:31:45.003Z,28128.00
2019-05-26T12:32:45.005Z,29984.00
2019-05-26T12:33:44.995Z,33152.00
2019-05-26T12:34:44.993Z,27520.00
2019-05-26T12:35:44.989Z,21504.00
2019-05-26T12:36:44.988Z,25344.00
2019-05-26T12:37:48.261Z,19744.00
2019-05-26T12:38:44.984Z,26976.00
2019-05-26T12:39:44.981Z,18176.00
2019-05-26T12:40:44.975Z,16800.00
2019-05-26T12:41:44.972Z,16800.00
2019-05-26T12:42:44.969Z,15456.00
2019-05-26T12:43:44.969Z,13128.00
2019-05-26T12:44:49.667Z,15696.00
2019-05-26T12:45:44.960Z,30400.00
2019-05-26T12:46:44.955Z,19872.00
2019-05-26T12:47:44.955Z,22464.00
2019-05-26T12:48:44.952Z,17920.00
2019-05-26T12:49:44.944Z,15492.00
2019-05-26T12:50:44.944Z,13820.00
2019-05-26T12:51:44.945Z,13116.00
2019-05-26T12:52:44.931Z,12416.00
2019-05-26T12:53:44.942Z,11644.00
2019-05-26T12:54:44.926Z,11376.00
2019-05-26T12:55:44.928Z,11304.00
2019-05-26T12:56:44.916Z,11736.00
2019-05-26T12:57:44.914Z,11532.00
2019-05-26T12:58:44.908Z,11848.00
2019-05-26T12:59:44.901Z,12360.00
2019-05-26T13:00:50.644Z,13512.00
2019-05-26T13:01:44.890Z,14960.00
2019-05-26T13:02:44.900Z,15508.00
2019-05-26T13:03:44.879Z,15340.00
2019-05-26T13:04:44.878Z,15992.00
2019-05-26T13:05:44.874Z,16604.00
2019-05-26T13:06:44.863Z,16928.00
2019-05-26T13:07:44.867Z,19008.00
2019-05-26T13:08:44.857Z,18944.00
2019-05-26T13:09:44.851Z,17184.00
2019-05-26T13:10:44.851Z,16896.00
2019-05-26T13:11:44.835Z,16864.00
2019-05-26T13:12:44.835Z,16376.00
2019-05-26T13:13:44.828Z,15504.00
2019-05-26T13:14:44.820Z,14848.00
2019-05-26T13:15:44.821Z,13968.00
2019-05-26T13:16:44.807Z,13696.00
2019-05-26T13:17:44.805Z,14372.00
2019-05-26T13:18:44.806Z,14392.00
2019-05-26T13:19:44.794Z,14868.00
2019-05-26T13:20:44.780Z,15324.00
2019-05-26T13:21:44.781Z,15884.00
2019-05-26T13:22:44.788Z,16244.00
2019-05-26T13:23:44.765Z,15196.00
2019-05-26T13:24:44.766Z,14440.00
2019-05-26T13:25:44.755Z,13496.00
2019-05-26T13:26:44.758Z,12792.00
2019-05-26T13:27:44.742Z,12496.00
2019-05-26T13:28:44.747Z,12840.00
2019-05-26T13:29:44.727Z,13528.00
2019-05-26T13:30:44.721Z,15224.00
2019-05-26T13:31:44.775Z,15828.00
2019-05-26T13:32:44.713Z,15852.00
2019-05-26T13:33:44.701Z,15168.00
2019-05-26T13:34:44.700Z,15008.00
2019-05-26T13:35:44.690Z,14560.00
2019-05-26T13:36:44.683Z,13960.00
2019-05-26T13:37:44.677Z,13928.00
2019-05-26T13:38:44.669Z,12880.00
2019-05-26T13:39:44.664Z,11216.00
2019-05-26T13:40:44.658Z,9520.00
2019-05-26T13:41:44.649Z,8168.00
2019-05-26T13:42:44.639Z,7696.00
2019-05-26T13:43:44.634Z,8276.00
2019-05-26T13:44:44.629Z,8916.00
2019-05-26T13:45:44.630Z,8640.00
2019-05-26T13:46:44.613Z,8680.00
2019-05-26T13:47:44.604Z,8828.00